Time;durP1;ratioP1;P1;durP2;ratioP2;P2;SDS_P1;SDS_P2;PMS_P1;PMS_P2;Temp;Humidity;BMP_temperature;BMP_pressure;BME280_temperature;BME280_humidity;BME280_pressure;Samples;Min_cycle;Max_cycle;Signal;HPM_P1;HPM_P2
2023/10/23 00:00:25;;;;;;;19.80;7.10;;;;;;;17.92;81.74;94750.84;5069760;28;20193;-44
2023/10/23 00:02:54;;;;;;;21.97;7.83;;;;;;;17.89;81.82;94757.19;5055935;28;20222;-44
2023/10/23 00:05:20;;;;;;;31.37;7.80;;;;;;;17.87;81.91;94756.56;5049863;28;20778;-43
2023/10/23 00:07:47;;;;;;;26.37;7.67;;;;;;;17.85;82.09;94757.72;5049382;28;20187;-45
2023/10/23 00:10:14;;;;;;;16.30;7.03;;;;;;;17.79;82.20;94752.31;5063162;28;20194;-44
2023/10/23 00:12:41;;;;;;;26.67;7.33;;;;;;;17.79;82.44;94761.84;5070586;28;20553;-44
2023/10/23 00:15:08;;;;;;;22.83;8.43;;;;;;;17.54;82.80;94719.91;5085023;28;20193;-45
2023/10/23 00:17:35;;;;;;;22.53;8.07;;;;;;;17.52;82.98;94722.66;5089784;28;20200;-45
2023/10/23 00:20:04;;;;;;;25.07;7.40;;;;;;;17.69;83.32;94754.31;5089680;28;20664;-45
2023/10/23 00:22:31;;;;;;;19.17;7.97;;;;;;;17.69;83.30;94758.69;5089662;28;20185;-45
2023/10/23 00:24:58;;;;;;;23.27;8.70;;;;;;;17.64;83.16;94751.47;5089717;28;20189;-44
2023/10/23 00:27:24;;;;;;;21.37;7.70;;;;;;;17.67;83.27;94756.28;5089539;28;20232;-44
2023/10/23 00:29:52;;;;;;;18.13;7.67;;;;;;;17.64;83.36;94756.66;5088951;28;20611;-45
2023/10/23 00:32:18;;;;;;;21.23;7.67;;;;;;;17.65;83.37;94760.81;5089874;28;20641;-44
2023/10/23 00:34:45;;;;;;;30.80;8.40;;;;;;;17.46;83.61;94732.94;5089177;28;20212;-45
2023/10/23 00:37:13;;;;;;;29.23;8.73;;;;;;;17.60;83.50;94757.97;5089345;28;20204;-43
2023/10/23 00:39:40;;;;;;;20.27;8.00;;;;;;;17.56;83.75;94746.38;5089336;28;20210;-44
2023/10/23 00:42:07;;;;;;;23.57;7.27;;;;;;;17.58;83.72;94747.03;5088267;28;20185;-44
2023/10/23 00:44:34;;;;;;;23.47;8.27;;;;;;;17.41;84.00;94723.13;5088898;28;20201;-45
2023/10/23 00:47:01;;;;;;;24.63;8.37;;;;;;;17.56;84.10;94756.72;5089896;28;20185;-45
2023/10/23 00:49:28;;;;;;;17.90;6.97;;;;;;;17.56;84.40;94756.72;5089081;28;20543;-43
2023/10/23 00:51:55;;;;;;;20.27;8.57;;;;;;;17.53;84.35;94752.75;5089393;28;20264;-44
2023/10/23 00:54:24;;;;;;;19.23;6.97;;;;;;;17.51;84.75;94754.69;5088906;28;20656;-43
2023/10/23 00:56:51;;;;;;;31.53;9.03;;;;;;;17.52;84.90;94750.31;5088822;28;20189;-46
2023/10/23 00:59:18;;;;;;;29.17;9.27;;;;;;;17.50;84.95;94747.13;5089417;28;20225;-45
2023/10/23 01:01:46;;;;;;;27.70;8.17;;;;;;;17.52;85.19;94750.31;5089526;28;20610;-44
2023/10/23 01:04:13;;;;;;;17.60;8.17;;;;;;;17.47;85.35;94748.25;5089275;28;20236;-45
2023/10/23 01:06:40;;;;;;;17.97;7.03;;;;;;;17.51;85.95;94746.13;5089031;28;20641;-45
2023/10/23 01:09:07;;;;;;;23.73;8.53;;;;;;;17.54;86.28;94749.16;5089571;28;20201;-44
2023/10/23 01:11:35;;;;;;;26.13;8.17;;;;;;;17.59;86.00;94750.41;5088825;28;20189;-46
2023/10/23 01:14:02;;;;;;;29.20;8.10;;;;;;;17.54;86.10;94738.81;5089229;28;20223;-43
2023/10/23 01:16:29;;;;;;;24.27;7.67;;;;;;;17.56;85.89;94739.44;5089315;28;20565;-45
2023/10/23 01:18:55;;;;;;;20.93;8.03;;;;;;;17.60;85.86;94737.28;5075117;28;20210;-45
2023/10/23 01:21:22;;;;;;;19.90;8.40;;;;;;;17.61;85.81;94736.31;5068639;28;20210;-44
2023/10/23 01:23:51;;;;;;;21.77;7.90;;;;;;;17.60;86.48;94723.56;5085066;28;20260;-44
2023/10/23 01:26:19;;;;;;;17.80;7.90;;;;;;;17.70;86.10;94739.59;5089038;28;20288;-45
2023/10/23 01:28:46;;;;;;;19.77;8.80;;;;;;;17.71;85.87;94738.63;5092920;28;20186;-45
2023/10/23 01:31:13;;;;;;;25.50;8.73;;;;;;;17.74;85.67;94741.66;5072609;28;20189;-44
2023/10/23 01:33:40;;;;;;;26.13;7.97;;;;;;;17.78;85.27;94742.91;5072172;28;20194;-43
2023/10/23 01:36:07;;;;;;;20.07;7.47;;;;;;;17.82;85.23;94739.97;5090233;28;20177;-45
2023/10/23 01:38:34;;;;;;;21.30;7.80;;;;;;;17.82;85.06;94743.34;5092773;28;20302;-45
2023/10/23 01:41:01;;;;;;;26.07;7.70;;;;;;;17.86;84.73;94741.22;5092667;28;20190;-44
2023/10/23 01:43:29;;;;;;;20.00;6.83;;;;;;;17.89;84.55;94739.06;5092312;28;20206;-44
2023/10/23 01:45:55;;;;;;;20.23;8.10;;;;;;;17.92;84.67;94748.25;5091977;28;20178;-45
2023/10/23 01:48:22;;;;;;;21.33;7.83;;;;;;;17.91;84.67;94754.41;5092688;28;20178;-45
2023/10/23 01:50:49;;;;;;;16.97;6.93;;;;;;;17.89;84.74;94751.22;5092691;28;20677;-44
2023/10/23 01:53:18;;;;;;;18.07;7.77;;;;;;;17.87;84.79;94743.63;5092328;28;20193;-44
2023/10/23 01:55:45;;;;;;;26.20;7.47;;;;;;;17.90;84.69;94752.81;5092762;28;20186;-44
2023/10/23 01:58:11;;;;;;;24.73;7.77;;;;;;;17.90;84.52;94755.41;5092373;28;20202;-44
2023/10/23 02:00:40;;;;;;;22.33;7.90;;;;;;;17.89;84.51;94748.63;5077337;28;20656;-46
2023/10/23 02:03:07;;;;;;;22.97;8.47;;;;;;;17.89;84.41;94753.81;5091716;28;20200;-43
2023/10/23 02:05:34;;;;;;;19.20;7.93;;;;;;;17.81;84.54;94741.75;5092669;28;20625;-44
2023/10/23 02:08:01;;;;;;;28.63;7.60;;;;;;;17.86;84.90;94752.38;5092429;28;20677;-45
2023/10/23 02:10:28;;;;;;;15.00;6.87;;;;;;;17.87;84.79;94748.00;5092800;28;20234;-45
2023/10/23 02:12:55;;;;;;;27.60;8.33;;;;;;;17.85;84.88;94755.16;5091957;28;20301;-44
2023/10/23 02:15:22;;;;;;;22.50;7.50;;;;;;;17.80;85.08;94745.34;5092231;28;20182;-44
2023/10/23 02:17:50;;;;;;;24.80;7.97;;;;;;;17.78;85.26;94752.47;5092255;28;20189;-45
2023/10/23 02:20:18;;;;;;;26.17;8.33;;;;;;;17.71;85.79;94749.78;5091722;28;20684;-45
2023/10/23 02:22:45;;;;;;;26.80;7.53;;;;;;;17.78;85.58;94749.88;5091865;28;20606;-44
2023/10/23 02:25:12;;;;;;;23.73;7.07;;;;;;;17.73;85.71;94747.00;5091765;28;20197;-44
2023/10/23 02:27:39;;;;;;;23.90;8.47;;;;;;;17.74;85.75;94751.22;5091412;28;20323;-46
2023/10/23 02:30:07;;;;;;;30.67;8.57;;;;;;;17.75;85.92;94745.09;5075615;28;20194;-44
2023/10/23 02:32:34;;;;;;;26.10;7.97;;;;;;;17.74;86.01;94744.25;5072550;28;20213;-44
2023/10/23 02:35:02;;;;;;;17.17;7.07;;;;;;;17.72;86.05;94753.97;5072025;28;20280;-45
2023/10/23 02:37:29;;;;;;;15.07;8.03;;;;;;;17.70;86.19;94749.94;5071364;28;20199;-45
2023/10/23 02:39:56;;;;;;;16.27;6.63;;;;;;;17.66;86.34;94753.88;5070882;28;20229;-46
2023/10/23 02:42:23;;;;;;;24.17;8.27;;;;;;;17.63;86.53;94751.66;5071615;28;20205;-45
2023/10/23 02:44:50;;;;;;;17.90;7.10;;;;;;;17.61;86.58;94751.03;5071934;28;20197;-45
2023/10/23 02:47:17;;;;;;;20.90;7.50;;;;;;;17.54;87.04;94741.41;5072345;28;20277;-45
2023/10/23 02:49:43;;;;;;;25.03;7.60;;;;;;;17.56;86.98;94747.19;5076721;28;20198;-45
2023/10/23 02:52:12;;;;;;;21.90;8.17;;;;;;;17.54;87.12;94750.94;5077153;28;20189;-46
2023/10/23 02:54:38;;;;;;;20.83;8.77;;;;;;;17.48;87.57;94746.47;5071010;28;20698;-43
2023/10/23 02:57:06;;;;;;;19.73;7.47;;;;;;;17.47;87.72;94747.47;5070685;28;20190;-45
2023/10/23 02:59:32;;;;;;;21.43;8.07;;;;;;;17.42;87.60;94742.03;5073836;28;20213;-44
2023/10/23 03:01:59;;;;;;;19.47;7.70;;;;;;;17.43;87.74;94748.81;5091496;28;20200;-44
2023/10/23 03:04:26;;;;;;;20.93;7.20;;;;;;;17.38;88.15;94759.69;5091369;28;20194;-44
2023/10/23 03:06:53;;;;;;;22.97;7.90;;;;;;;17.34;88.11;94762.78;5090817;28;20625;-42
2023/10/23 03:09:22;;;;;;;27.57;7.73;;;;;;;17.30;88.15;94759.75;5090901;28;20510;-44
2023/10/23 03:11:49;;;;;;;17.50;7.33;;;;;;;17.13;88.29;94733.28;5090320;28;20277;-44
2023/10/23 03:14:15;;;;;;;19.30;7.60;;;;;;;17.22;88.59;94765.81;5090238;28;20193;-45
2023/10/23 03:16:42;;;;;;;23.07;7.77;;;;;;;17.20;88.79;94754.06;5070102;28;20189;-44
2023/10/23 03:19:09;;;;;;;29.80;8.73;;;;;;;17.19;88.88;94767.97;5070711;28;20225;-44
2023/10/23 03:21:36;;;;;;;19.53;7.43;;;;;;;17.15;89.11;94761.53;5071029;28;20197;-45
2023/10/23 03:24:03;;;;;;;24.50;7.83;;;;;;;17.14;89.13;94762.50;5070656;28;20638;-44
2023/10/23 03:26:31;;;;;;;19.97;7.90;;;;;;;16.97;89.21;94736.03;5078474;28;20276;-44
2023/10/23 03:28:58;;;;;;;18.17;7.60;;;;;;;17.04;89.44;94755.81;5090703;28;20720;-46
2023/10/23 03:31:25;;;;;;;27.97;8.17;;;;;;;17.06;89.61;94765.97;5090786;28;20194;-45
2023/10/23 03:33:52;;;;;;;22.57;7.73;;;;;;;17.02;89.60;94762.94;5090683;28;20197;-44
2023/10/23 03:36:19;;;;;;;22.80;7.97;;;;;;;17.04;90.01;94760.97;5091199;28;20273;-45
2023/10/23 03:38:45;;;;;;;17.53;8.23;;;;;;;17.02;89.96;94762.13;5090964;28;20629;-45
2023/10/23 03:41:12;;;;;;;24.03;8.47;;;;;;;17.02;90.15;94770.69;5089941;28;20197;-45
2023/10/23 03:43:40;;;;;;;31.17;8.87;;;;;;;17.03;90.18;94754.19;5072963;28;20217;-45
2023/10/23 03:46:07;;;;;;;23.63;8.70;;;;;;;16.99;90.17;94750.38;5085810;28;20185;-46
2023/10/23 03:48:37;;;;;;;15.10;8.33;;;;;;;16.89;90.46;94725.78;5089787;28;20665;-45
2023/10/23 03:51:04;;;;;;;23.20;8.63;;;;;;;17.07;90.45;94757.25;5090027;28;20185;-45
2023/10/23 03:53:31;;;;;;;20.97;8.30;;;;;;;17.10;90.39;94762.06;5089916;28;20198;-46
2023/10/23 03:55:58;;;;;;;17.30;8.50;;;;;;;17.08;90.27;94756.25;5089438;28;20524;-45
2023/10/23 03:58:25;;;;;;;23.83;8.30;;;;;;;17.12;90.21;94760.09;5090506;28;20220;-45
2023/10/23 04:00:56;;;;;;;20.23;8.03;;;;;;;16.97;90.25;94739.41;5085738;28;20325;-42
2023/10/23 04:03:23;;;;;;;20.00;7.87;;;;;;;17.15;90.21;94759.75;5072397;28;20546;-45
2023/10/23 04:05:49;;;;;;;22.27;8.30;;;;;;;17.18;90.26;94767.13;5088527;28;20193;-46
2023/10/23 04:08:16;;;;;;;20.97;7.23;;;;;;;17.20;90.40;94760.03;5089757;28;20189;-45
2023/10/23 04:10:47;;;;;;;31.97;9.00;;;;;;;17.16;90.54;94757.97;5089730;28;20185;-44
2023/10/23 04:13:14;;;;;;;22.67;8.83;;;;;;;17.20;90.54;94757.44;5087179;28;20221;-45
2023/10/23 04:15:41;;;;;;;23.67;8.80;;;;;;;17.23;90.44;94761.47;5081232;28;20650;-45
2023/10/23 04:18:09;;;;;;;29.50;9.43;;;;;;;17.24;90.36;94757.91;5090244;28;20649;-46
2023/10/23 04:20:36;;;;;;;32.37;8.73;;;;;;;17.31;90.68;94766.53;5081016;28;20264;-45
2023/10/23 04:23:03;;;;;;;27.90;7.83;;;;;;;17.30;90.74;94763.13;5069648;28;20227;-44
2023/10/23 04:25:30;;;;;;;27.30;8.17;;;;;;;17.31;90.92;94771.69;5055923;28;20187;-45
2023/10/23 04:27:56;;;;;;;35.47;10.50;;;;;;;17.30;90.51;94775.25;5049047;28;20223;-44
2023/10/23 04:30:23;;;;;;;24.10;9.17;;;;;;;17.30;90.72;94770.91;5058268;28;20189;-45
2023/10/23 04:32:50;;;;;;;27.30;9.03;;;;;;;17.29;90.50;94769.28;5089428;28;20194;-46
2023/10/23 04:35:18;;;;;;;24.80;8.70;;;;;;;17.34;90.90;94771.34;5089623;28;20190;-45
2023/10/23 04:37:45;;;;;;;25.80;9.27;;;;;;;17.36;90.63;94781.50;5090536;28;20284;-45
2023/10/23 04:40:15;;;;;;;29.67;9.40;;;;;;;17.38;90.78;94787.31;5090433;28;20769;-46
2023/10/23 04:42:42;;;;;;;31.33;8.77;;;;;;;17.37;91.23;94777.97;5089585;28;20201;-44
2023/10/23 04:45:09;;;;;;;20.77;8.30;;;;;;;17.40;91.29;94777.59;5089506;28;20204;-45
2023/10/23 04:47:36;;;;;;;28.57;9.87;;;;;;;17.39;91.41;94776.00;5089000;28;20186;-46
2023/10/23 04:50:03;;;;;;;20.17;8.80;;;;;;;17.38;91.48;94771.81;5080536;28;20682;-44
2023/10/23 04:52:32;;;;;;;23.03;9.77;;;;;;;17.36;91.56;94784.09;5069483;28;20248;-46
2023/10/23 04:54:58;;;;;;;23.57;8.50;;;;;;;17.38;91.39;94775.19;5069055;28;20190;-45
2023/10/23 04:57:25;;;;;;;26.27;8.43;;;;;;;17.39;91.47;94792.28;5068767;28;20210;-45
2023/10/23 04:59:52;;;;;;;20.13;9.20;;;;;;;17.40;91.25;94780.16;5069149;28;20218;-44
2023/10/23 05:02:19;;;;;;;20.00;8.57;;;;;;;17.43;91.43;94780.63;5072542;28;20182;-45
2023/10/23 05:04:45;;;;;;;26.93;8.63;;;;;;;17.42;91.37;94779.03;5080481;28;20193;-44
2023/10/23 05:07:12;;;;;;;29.10;9.60;;;;;;;17.46;91.25;94785.44;5095308;28;20197;-46
2023/10/23 05:09:40;;;;;;;26.37;8.73;;;;;;;17.49;91.26;94790.28;5096299;28;20237;-45
2023/10/23 05:12:08;;;;;;;28.00;9.47;;;;;;;17.53;91.51;94793.31;5078056;28;20240;-44
2023/10/23 05:14:35;;;;;;;29.80;10.17;;;;;;;17.59;91.38;94804.72;5072727;28;20202;-45
2023/10/23 05:17:01;;;;;;;34.53;9.77;;;;;;;17.60;91.08;94799.34;5072758;28;20673;-44
2023/10/23 05:19:28;;;;;;;29.07;9.83;;;;;;;17.62;91.08;94801.78;5072697;28;20216;-45
2023/10/23 05:21:55;;;;;;;22.87;8.57;;;;;;;17.59;91.23;94802.94;5072794;28;20678;-46
2023/10/23 05:24:22;;;;;;;30.57;9.43;;;;;;;17.56;91.11;94814.41;5072389;28;20917;-45
2023/10/23 05:26:50;;;;;;;28.60;8.20;;;;;;;17.57;91.05;94812.63;5076093;28;20214;-44
2023/10/23 05:29:16;;;;;;;20.13;8.57;;;;;;;17.57;91.04;94810.06;5072272;28;20186;-44
2023/10/23 05:31:43;;;;;;;26.00;8.67;;;;;;;17.64;91.55;94815.31;5073847;28;20703;-44
2023/10/23 05:34:10;;;;;;;23.60;8.03;;;;;;;17.66;91.49;94813.34;5072323;28;20562;-46
2023/10/23 05:36:37;;;;;;;25.77;8.83;;;;;;;17.68;91.40;94801.06;5072690;28;20193;-44
2023/10/23 05:39:04;;;;;;;28.87;9.90;;;;;;;17.64;91.44;94798.03;5072344;28;20194;-44
2023/10/23 05:41:30;;;;;;;24.83;8.07;;;;;;;17.65;91.28;94811.75;5072423;28;20218;-45
2023/10/23 05:43:59;;;;;;;21.53;8.97;;;;;;;17.65;91.09;94819.50;5071969;28;20190;-45
2023/10/23 05:46:25;;;;;;;22.93;8.27;;;;;;;17.69;90.97;94813.00;5072465;28;20685;-45
2023/10/23 05:48:52;;;;;;;26.23;9.80;;;;;;;17.71;90.69;94814.44;5072422;28;20209;-46
2023/10/23 05:51:19;;;;;;;28.73;9.03;;;;;;;17.74;90.50;94810.72;5071951;28;20670;-45
2023/10/23 05:53:46;;;;;;;21.93;8.47;;;;;;;17.72;90.58;94810.06;5072265;28;20600;-46
2023/10/23 05:56:13;;;;;;;30.43;8.80;;;;;;;17.79;90.38;94818.75;5072033;28;20202;-45
2023/10/23 05:58:39;;;;;;;25.97;8.37;;;;;;;17.87;90.26;94825.59;5072413;28;20190;-44
2023/10/23 06:01:09;;;;;;;26.97;8.73;;;;;;;17.93;89.76;94828.28;5071803;28;20225;-45
2023/10/23 06:03:35;;;;;;;26.73;8.47;;;;;;;17.97;89.52;94829.53;5071954;28;20190;-45
2023/10/23 06:06:02;;;;;;;27.73;8.97;;;;;;;18.01;89.41;94833.38;5072178;28;20194;-50
2023/10/23 06:08:29;;;;;;;27.30;8.97;;;;;;;17.98;89.46;94820.78;5072394;28;20201;-46
2023/10/23 06:10:56;;;;;;;23.47;8.60;;;;;;;18.04;89.42;94832.19;5072079;28;20560;-45
2023/10/23 06:13:23;;;;;;;29.00;8.83;;;;;;;18.07;89.42;94828.47;5071833;28;20218;-46
2023/10/23 06:15:50;;;;;;;21.27;9.03;;;;;;;18.12;89.39;94828.72;5073211;28;20189;-46
2023/10/23 06:18:18;;;;;;;27.63;9.63;;;;;;;18.10;89.22;94835.88;5072874;28;20234;-44
2023/10/23 06:20:45;;;;;;;27.93;9.10;;;;;;;18.13;88.98;94825.13;5072152;28;20222;-46
2023/10/23 06:23:12;;;;;;;44.37;15.00;;;;;;;18.27;88.96;94845.03;5072065;28;20630;-45
2023/10/23 06:25:39;;;;;;;24.10;10.57;;;;;;;18.32;88.51;94850.47;5072293;28;20179;-45
2023/10/23 06:28:06;;;;;;;22.60;8.43;;;;;;;18.20;88.10;94820.84;5071652;28;20235;-45
2023/10/23 06:30:36;;;;;;;33.57;9.67;;;;;;;18.35;88.04;94842.34;5071999;28;20190;-45
2023/10/23 06:33:03;;;;;;;28.07;9.53;;;;;;;18.47;87.67;94850.44;5071992;28;20191;-45
2023/10/23 06:35:31;;;;;;;22.40;8.63;;;;;;;18.52;87.32;94856.69;5071923;28;20251;-44
2023/10/23 06:37:58;;;;;;;28.77;8.93;;;;;;;18.58;87.20;94855.16;5071453;28;20199;-46
2023/10/23 06:40:25;;;;;;;19.53;8.83;;;;;;;18.64;86.98;94857.00;5071471;28;20225;-45
2023/10/23 06:42:52;;;;;;;25.80;9.63;;;;;;;18.65;86.71;94853.44;5071554;28;20186;-45
2023/10/23 06:45:18;;;;;;;21.97;9.30;;;;;;;18.77;86.44;94851.19;5071129;28;20358;-46
2023/10/23 06:47:48;;;;;;;33.43;10.13;;;;;;;18.82;86.22;94853.22;5071146;28;20198;-46
2023/10/23 06:50:15;;;;;;;25.13;9.93;;;;;;;18.89;86.01;94864.47;5071187;28;20202;-46
2023/10/23 06:52:44;;;;;;;23.00;9.70;;;;;;;18.96;85.84;94868.72;5071002;28;20193;-45
2023/10/23 06:55:11;;;;;;;31.03;10.60;;;;;;;19.02;85.43;94867.97;5071171;28;20183;-45
2023/10/23 06:57:38;;;;;;;27.70;10.67;;;;;;;19.11;85.08;94875.63;5071370;28;20209;-43
2023/10/23 07:00:07;;;;;;;29.10;10.17;;;;;;;19.18;84.90;94874.72;5070838;28;20657;-44
2023/10/23 07:02:34;;;;;;;29.73;10.07;;;;;;;19.27;84.34;94878.78;5071007;28;20195;-45
2023/10/23 07:05:01;;;;;;;27.27;9.63;;;;;;;19.34;84.11;94868.44;5071148;28;20189;-44
2023/10/23 07:07:28;;;;;;;26.70;8.93;;;;;;;19.38;83.50;94874.84;5070813;28;20197;-46
2023/10/23 07:09:58;;;;;;;25.57;9.93;;;;;;;19.44;82.89;94868.94;5073191;28;20199;-45
2023/10/23 07:12:25;;;;;;;29.77;9.33;;;;;;;19.50;82.60;94877.75;5074046;28;20297;-45
2023/10/23 07:14:52;;;;;;;27.07;10.37;;;;;;;19.54;82.36;94868.59;5079250;28;20194;-45
2023/10/23 07:17:19;;;;;;;33.13;8.73;;;;;;;19.55;82.26;94867.63;5072701;28;20747;-46
2023/10/23 07:19:46;;;;;;;22.00;8.90;;;;;;;19.52;82.05;94876.59;5070109;28;20214;-46
2023/10/23 07:22:13;;;;;;;19.40;8.50;;;;;;;19.55;81.97;94872.81;5070806;28;20191;-44
2023/10/23 07:24:40;;;;;;;22.87;8.67;;;;;;;19.63;81.21;94879.69;5070532;28;20201;-45
2023/10/23 07:27:11;;;;;;;33.92;8.13;;;;;;;19.68;81.38;94872.13;5070455;28;20234;-45
2023/10/23 07:29:38;;;;;;;22.13;8.70;;;;;;;19.75;80.89;94873.78;5070308;28;20194;-46
2023/10/23 07:32:05;;;;;;;25.23;8.90;;;;;;;19.76;80.68;94875.38;5070729;28;20201;-46
2023/10/23 07:34:32;;;;;;;19.33;8.50;;;;;;;19.82;80.74;94875.59;5070360;28;20190;-47
2023/10/23 07:36:59;;;;;;;25.38;9.77;;;;;;;19.85;80.70;94875.22;5070289;28;20186;-45
2023/10/23 07:39:26;;;;;;;24.60;9.35;;;;;;;19.89;80.54;94873.84;5069957;28;20277;-45
2023/10/23 07:41:52;;;;;;;26.83;10.23;;;;;;;19.98;80.37;94875.31;5071039;28;20211;-46
2023/10/23 07:44:21;;;;;;;36.58;11.63;;;;;;;19.98;80.20;94876.09;5073093;28;20194;-44
2023/10/23 07:46:48;;;;;;;32.13;10.93;;;;;;;20.00;80.17;94866.34;5070217;28;20206;-44
2023/10/23 07:49:15;;;;;;;30.65;9.90;;;;;;;20.08;80.23;94870.59;5070099;28;20194;-44
2023/10/23 07:51:42;;;;;;;36.20;10.93;;;;;;;20.14;80.10;94869.00;5070198;28;20182;-44
2023/10/23 07:54:08;;;;;;;33.30;10.37;;;;;;;20.22;79.64;94867.06;5069920;28;20186;-45
2023/10/23 07:56:35;;;;;;;31.02;10.70;;;;;;;20.28;79.45;94865.47;5070476;28;20205;-46
2023/10/23 07:59:02;;;;;;;34.47;9.98;;;;;;;20.34;79.20;94875.09;5070047;28;20195;-44
2023/10/23 08:01:30;;;;;;;29.98;9.45;;;;;;;20.38;79.21;94870.31;5069682;28;20222;-46
2023/10/23 08:03:57;;;;;;;25.02;8.80;;;;;;;20.47;78.47;94867.38;5070185;28;20225;-45
2023/10/23 08:06:24;;;;;;;28.35;8.95;;;;;;;20.46;78.29;94868.34;5070256;28;20186;-46
2023/10/23 08:08:50;;;;;;;41.50;9.80;;;;;;;20.09;78.36;94809.06;5070760;28;20190;-46
2023/10/23 08:11:17;;;;;;;29.23;8.32;;;;;;;20.41;78.61;94869.94;5069764;28;20205;-45
2023/10/23 08:13:44;;;;;;;31.08;8.82;;;;;;;20.36;78.69;94865.31;5069929;28;20205;-45
2023/10/23 08:16:11;;;;;;;26.38;8.18;;;;;;;20.37;78.85;94877.31;5069541;28;20565;-44
2023/10/23 08:18:39;;;;;;;22.08;8.80;;;;;;;20.43;78.69;94876.53;5069545;28;20200;-44
2023/10/23 08:21:10;;;;;;;27.57;9.00;;;;;;;20.52;78.28;94867.63;5069783;28;20231;-44
2023/10/23 08:23:37;;;;;;;27.65;8.55;;;;;;;20.67;77.35;94871.84;5069531;28;20297;-44
2023/10/23 08:26:04;;;;;;;20.63;8.65;;;;;;;20.74;77.22;94876.06;5069696;28;20179;-45
2023/10/23 08:28:31;;;;;;;26.25;8.65;;;;;;;20.80;77.09;94874.47;5069089;28;20256;-51
2023/10/23 08:30:58;;;;;;;22.98;8.32;;;;;;;20.91;76.61;94873.13;5069495;28;20202;-47
2023/10/23 08:33:25;;;;;;;23.45;8.60;;;;;;;21.07;75.97;94872.75;5069421;28;20188;-45
2023/10/23 08:35:53;;;;;;;23.83;8.60;;;;;;;21.20;75.47;94875.38;5068823;28;20197;-45
2023/10/23 08:38:20;;;;;;;20.75;8.23;;;;;;;21.32;74.28;94869.59;5069394;28;20566;-46
2023/10/23 08:40:48;;;;;;;26.10;8.38;;;;;;;21.37;74.09;94867.97;5069607;28;20236;-45
2023/10/23 08:43:15;;;;;;;36.67;9.32;;;;;;;21.54;73.18;94865.78;5069512;28;20182;-44
2023/10/23 08:45:43;;;;;;;27.65;10.50;;;;;;;21.63;73.15;94861.16;5069216;28;20680;-45
2023/10/23 08:48:10;;;;;;;30.77;8.98;;;;;;;21.66;72.83;94861.56;5070188;28;20213;-45
2023/10/23 08:50:40;;;;;;;28.75;9.82;;;;;;;21.54;72.55;94829.34;5069205;28;20213;-45
2023/10/23 08:53:11;;;;;;;26.27;9.48;;;;;;;21.89;71.77;94861.16;5069203;28;20198;-46
2023/10/23 08:55:38;;;;;;;29.73;9.52;;;;;;;21.94;71.55;94850.91;5069171;28;20198;-45
2023/10/23 08:58:06;;;;;;;26.35;8.88;;;;;;;22.03;70.94;94862.72;5069204;28;20182;-47
2023/10/23 09:00:33;;;;;;;23.13;9.18;;;;;;;22.09;70.43;94858.47;5068948;28;20193;-45
2023/10/23 09:03:01;;;;;;;27.13;9.18;;;;;;;22.12;70.27;94863.31;5068848;28;20222;-46
2023/10/23 09:05:28;;;;;;;35.67;11.32;;;;;;;22.17;69.67;94857.50;5068869;28;20790;-45
2023/10/23 09:07:56;;;;;;;28.58;9.75;;;;;;;22.20;69.34;94860.50;5069593;28;20190;-46
2023/10/23 09:10:26;;;;;;;35.88;10.85;;;;;;;22.21;69.72;94856.88;5069247;28;20186;-45
2023/10/23 09:12:56;;;;;;;24.50;10.02;;;;;;;22.19;69.56;94860.69;5069384;28;20189;-45
2023/10/23 09:15:24;;;;;;;34.63;10.18;;;;;;;22.21;69.53;94856.88;5068624;28;20274;-46
2023/10/23 09:17:53;;;;;;;30.38;9.02;;;;;;;22.25;68.84;94858.06;5068876;28;20236;-46
2023/10/23 09:20:23;;;;;;;23.23;8.63;;;;;;;22.29;68.68;94855.84;5068151;28;20198;-44
2023/10/23 09:22:52;;;;;;;35.92;10.13;;;;;;;22.34;68.47;94850.81;5069111;28;20226;-46
2023/10/23 09:25:20;;;;;;;26.40;11.10;;;;;;;22.38;68.21;94846.00;5069111;28;20321;-45
2023/10/23 09:27:49;;;;;;;24.27;10.57;;;;;;;22.36;68.31;94848.78;5069504;28;20229;-44
2023/10/23 09:30:21;;;;;;;24.58;10.75;;;;;;;22.35;68.28;94854.22;5069356;28;20516;-45
2023/10/23 09:32:51;;;;;;;34.45;10.93;;;;;;;22.32;68.42;94847.59;5069100;28;20198;-45
2023/10/23 09:35:18;;;;;;;34.20;10.35;;;;;;;22.14;68.38;94818.81;5068667;28;20252;-46
2023/10/23 09:37:45;;;;;;;31.17;11.23;;;;;;;22.28;68.42;94846.44;5068832;28;20198;-45
2023/10/23 09:40:12;;;;;;;33.67;10.48;;;;;;;22.35;68.26;94843.81;5068855;28;20194;-46
2023/10/23 09:42:40;;;;;;;28.75;9.70;;;;;;;22.45;68.18;94838.94;5069269;28;20249;-44
2023/10/23 09:45:10;;;;;;;34.90;10.77;;;;;;;22.59;67.66;94842.31;5068584;28;20225;-45
2023/10/23 09:47:37;;;;;;;21.27;9.60;;;;;;;22.64;67.21;94827.63;5069913;28;20301;-45
2023/10/23 09:50:05;;;;;;;24.67;10.20;;;;;;;22.84;66.29;94834.53;5072622;28;20205;-44
2023/10/23 09:52:34;;;;;;;21.40;10.38;;;;;;;22.88;66.23;94831.28;5074453;28;20205;-46
2023/10/23 09:55:03;;;;;;;29.80;10.23;;;;;;;22.97;66.12;94831.84;5074204;28;20276;-47
2023/10/23 09:57:35;;;;;;;30.45;9.75;;;;;;;23.01;65.96;94823.44;5074500;28;20577;-47
2023/10/23 10:00:07;;;;;;;22.05;9.18;;;;;;;23.10;65.40;94828.34;5073561;28;20212;-47
2023/10/23 10:02:39;;;;;;;23.67;9.65;;;;;;;23.08;65.62;94823.38;5072235;28;20248;-46
2023/10/23 10:05:07;;;;;;;28.48;10.05;;;;;;;22.93;65.49;94797.59;5071784;28;20681;-45
2023/10/23 10:07:47;;;;;;;50.05;11.02;;;;;;;22.99;65.97;94820.22;5071885;28;20210;-45
2023/10/23 10:10:15;;;;;;;39.95;11.10;;;;;;;22.95;65.87;94816.44;5071541;28;20204;-45
2023/10/23 10:12:43;;;;;;;27.13;8.68;;;;;;;22.94;65.88;94814.84;5072134;28;20255;-45
2023/10/23 10:15:10;;;;;;;31.00;10.02;;;;;;;22.94;65.88;94811.44;5071815;28;20194;-47
2023/10/23 10:17:40;;;;;;;30.70;10.40;;;;;;;22.96;65.86;94798.97;5071872;28;20206;-45
2023/10/23 10:20:09;;;;;;;29.92;9.68;;;;;;;22.97;65.44;94801.38;5071849;28;20281;-45
2023/10/23 10:22:39;;;;;;;28.42;10.07;;;;;;;22.94;65.60;94798.38;5072503;28;20222;-46
2023/10/23 10:25:09;;;;;;;32.08;8.25;;;;;;;22.98;65.90;94802.97;5072344;28;20190;-45
2023/10/23 10:27:36;;;;;;;22.33;9.55;;;;;;;23.07;65.38;94803.50;5070932;28;20230;-46
2023/10/23 10:30:05;;;;;;;26.50;9.32;;;;;;;23.01;65.23;94780.88;5071932;28;20194;-45
2023/10/23 10:32:33;;;;;;;33.03;8.93;;;;;;;23.21;64.67;94805.00;5072162;28;20194;-45
2023/10/23 10:35:06;;;;;;;28.27;9.32;;;;;;;23.26;64.20;94797.31;5071922;28;20638;-46
2023/10/23 10:37:33;;;;;;;36.60;9.85;;;;;;;23.29;63.97;94789.06;5071857;28;20223;-46
2023/10/23 10:40:11;;;;;;;30.48;8.57;;;;;;;23.36;63.84;94789.03;5071797;28;20603;-45
2023/10/23 10:42:40;;;;;;;27.73;8.38;;;;;;;23.45;63.00;94790.34;5072123;28;20353;-45
2023/10/23 10:45:19;;;;;;;24.08;9.30;;;;;;;23.52;63.25;94783.25;5072021;28;20666;-45
2023/10/23 10:47:52;;;;;;;26.10;9.93;;;;;;;23.64;62.41;94779.91;5071885;28;20190;-45
2023/10/23 10:50:40;;;;;;;28.83;8.75;;;;;;;23.71;62.32;94781.50;5069783;28;20190;-46
2023/10/23 10:53:07;;;;;;;30.08;8.90;;;;;;;23.77;61.86;94769.38;5071957;28;20644;-47
2023/10/23 10:55:36;;;;;;;33.53;8.77;;;;;;;23.80;61.76;94771.56;5073667;28;20567;-45
2023/10/23 10:58:05;;;;;;;28.33;8.32;;;;;;;23.92;60.63;94756.75;5073906;28;20191;-45
2023/10/23 11:00:33;;;;;;;26.88;8.35;;;;;;;24.02;60.38;94756.22;5071415;28;20260;-46
2023/10/23 11:03:00;;;;;;;26.67;8.10;;;;;;;24.08;61.03;94762.38;5070898;28;20717;-45
2023/10/23 11:05:28;;;;;;;29.52;9.43;;;;;;;24.07;60.52;94758.97;5070633;28;20203;-45
2023/10/23 11:07:56;;;;;;;25.60;9.40;;;;;;;24.08;59.98;94759.78;5071306;28;20208;-45
2023/10/23 11:10:23;;;;;;;33.30;8.75;;;;;;;24.13;60.22;94757.28;5070706;28;20198;-47
2023/10/23 11:12:51;;;;;;;27.52;8.30;;;;;;;24.11;60.63;94748.88;5071030;28;20202;-45
2023/10/23 11:15:18;;;;;;;37.50;8.48;;;;;;;24.17;60.15;94746.19;5070509;28;20327;-46
2023/10/23 11:17:47;;;;;;;26.27;7.28;;;;;;;24.13;59.40;94724.13;5070932;28;20277;-44
2023/10/23 11:20:14;;;;;;;30.80;8.27;;;;;;;24.27;58.27;94743.06;5070728;28;20278;-45
2023/10/23 11:22:43;;;;;;;17.90;6.38;;;;;;;24.35;56.78;94734.09;5070138;28;20225;-44
2023/10/23 11:25:13;;;;;;;31.45;7.13;;;;;;;24.32;56.67;94739.78;5070673;28;20665;-46